createdAt,value
2022-09-11T00:00:18.359Z,101075.50
2022-09-11T00:02:47.038Z,101076.72
2022-09-11T00:05:15.888Z,101069.16
2022-09-11T00:07:44.450Z,101074.38
2022-09-11T00:10:13.197Z,101064.25
2022-09-11T00:12:43.593Z,101075.66
2022-09-11T00:15:12.473Z,101065.63
2022-09-11T00:17:41.229Z,101059.53
2022-09-11T00:20:10.779Z,101063.25
2022-09-11T00:22:39.832Z,101055.16
2022-09-11T00:25:09.135Z,101050.59
2022-09-11T00:27:37.806Z,101053.84
2022-09-11T00:30:09.285Z,101056.09
2022-09-11T00:32:38.106Z,101051.81
2022-09-11T00:35:08.115Z,101057.22
2022-09-11T00:37:36.826Z,101054.03
2022-09-11T00:40:06.105Z,101044.09
2022-09-11T00:42:34.929Z,101045.97
2022-09-11T00:45:06.756Z,101047.38
2022-09-11T00:47:37.983Z,101039.28
2022-09-11T00:50:14.038Z,101033.63
2022-09-11T00:52:53.002Z,101038.16
2022-09-11T00:55:27.491Z,101034.50
2022-09-11T00:58:01.442Z,101034.97
2022-09-11T01:00:30.316Z,101029.66
2022-09-11T01:03:01.296Z,101025.03
2022-09-11T01:05:34.980Z,101024.44
2022-09-11T01:08:04.162Z,101023.63
2022-09-11T01:10:43.702Z,101021.56
2022-09-11T01:13:22.240Z,101022.97
2022-09-11T01:16:04.533Z,101010.50
2022-09-11T01:18:39.981Z,101019.34
2022-09-11T01:21:34.656Z,101021.84
2022-09-11T01:24:17.868Z,101023.31
2022-09-11T01:27:22.464Z,101016.63
2022-09-11T01:29:58.249Z,101009.00
2022-09-11T01:32:35.656Z,101009.75
2022-09-11T01:35:12.235Z,100998.94
2022-09-11T01:37:47.002Z,100999.88
2022-09-11T01:40:22.977Z,100998.84
2022-09-11T01:42:56.636Z,101004.91
2022-09-11T01:45:28.527Z,101005.13
2022-09-11T01:48:00.210Z,101009.81
2022-09-11T01:50:32.567Z,100999.59
2022-09-11T01:53:05.323Z,101000.84
2022-09-11T01:55:38.943Z,100992.34
2022-09-11T01:58:11.121Z,100984.47
2022-09-11T02:00:49.989Z,100996.31
2022-09-11T02:03:27.334Z,100982.38
2022-09-11T02:06:00.798Z,100977.16
2022-09-11T02:08:32.998Z,100980.41
2022-09-11T02:11:07.306Z,100974.03
2022-09-11T02:13:41.662Z,100976.88
2022-09-11T02:16:19.732Z,100976.38
2022-09-11T02:18:58.668Z,100973.19
2022-09-11T02:21:27.930Z,100972.22
2022-09-11T02:23:57.237Z,100977.16
2022-09-11T02:26:28.665Z,100969.56
2022-09-11T02:28:57.601Z,100971.56
2022-09-11T02:31:28.377Z,100972.22
2022-09-11T02:33:58.197Z,100969.56
2022-09-11T02:37:01.978Z,100965.94
2022-09-11T02:39:45.924Z,100971.19
2022-09-11T02:42:28.987Z,100971.97
2022-09-11T02:45:07.548Z,100963.50
2022-09-11T02:47:46.287Z,100966.41
2022-09-11T02:50:26.289Z,100964.06
2022-09-11T02:53:00.316Z,100962.38
2022-09-11T02:55:40.511Z,100966.84
2022-09-11T02:58:16.186Z,100955.00
2022-09-11T03:00:48.314Z,100957.22
2022-09-11T03:03:20.106Z,100950.28
2022-09-11T03:05:49.369Z,100957.38
2022-09-11T03:08:19.420Z,100954.09
2022-09-11T03:10:50.238Z,100948.06
2022-09-11T03:13:19.304Z,100953.56
2022-09-11T03:15:48.401Z,100946.09
2022-09-11T03:18:19.399Z,100938.25
2022-09-11T03:20:49.310Z,100941.56
2022-09-11T03:23:18.100Z,100930.81
2022-09-11T03:25:47.506Z,100932.91
2022-09-11T03:28:16.882Z,100939.16
2022-09-11T03:30:46.101Z,100927.72
2022-09-11T03:33:17.561Z,100928.81
2022-09-11T03:35:48.299Z,100930.38
2022-09-11T03:38:17.452Z,100934.88
2022-09-11T03:40:46.522Z,100932.63
2022-09-11T03:43:16.880Z,100932.84
2022-09-11T03:45:46.100Z,100933.63
2022-09-11T03:48:15.591Z,100931.16
2022-09-11T03:50:44.933Z,100924.88
2022-09-11T03:53:15.511Z,100929.28
2022-09-11T03:55:46.262Z,100931.84
2022-09-11T03:58:15.585Z,100925.00
2022-09-11T04:00:46.027Z,100926.28
2022-09-11T04:03:16.962Z,100927.69
2022-09-11T04:05:58.646Z,100919.97
2022-09-11T04:08:33.816Z,100919.13
2022-09-11T04:11:07.074Z,100915.53
2022-09-11T04:13:40.193Z,100903.88
2022-09-11T04:16:14.330Z,100918.13
2022-09-11T04:18:46.073Z,100913.66
2022-09-11T04:21:17.843Z,100923.09
2022-09-11T04:23:56.703Z,100914.66
2022-09-11T04:26:29.725Z,100915.00
2022-09-11T04:29:09.178Z,100904.19
2022-09-11T04:31:38.650Z,100916.22
2022-09-11T04:34:08.905Z,100909.38
2022-09-11T04:36:39.153Z,100909.00
2022-09-11T04:39:13.685Z,100906.28
2022-09-11T04:41:45.448Z,100905.75
2022-09-11T04:44:14.924Z,100906.25
2022-09-11T04:46:45.536Z,100904.97
2022-09-11T04:49:15.821Z,100909.59
2022-09-11T04:51:46.940Z,100908.81
2022-09-11T04:54:21.782Z,100915.69
2022-09-11T04:56:51.081Z,100909.59
2022-09-11T04:59:22.587Z,100903.31
2022-09-11T05:02:03.972Z,100909.28
2022-09-11T05:04:32.737Z,100908.56
2022-09-11T05:07:02.970Z,100903.09
2022-09-11T05:09:33.363Z,100903.50
2022-09-11T05:12:03.645Z,100893.72
2022-09-11T05:14:36.123Z,100889.56
2022-09-11T05:17:05.664Z,100891.84
2022-09-11T05:19:38.186Z,100884.94
2022-09-11T05:22:09.101Z,100891.31
2022-09-11T05:24:42.663Z,100894.81
2022-09-11T05:27:12.202Z,100884.09
2022-09-11T05:29:42.096Z,100885.59
2022-09-11T05:32:13.864Z,100880.91
2022-09-11T05:34:43.863Z,100884.69
2022-09-11T05:37:16.383Z,100882.47
2022-09-11T05:39:48.857Z,100872.16
2022-09-11T05:42:18.004Z,100881.38
2022-09-11T05:44:52.505Z,100866.97
2022-09-11T05:47:22.243Z,100867.72
2022-09-11T05:49:53.944Z,100876.03
2022-09-11T05:52:22.636Z,100863.38
2022-09-11T05:54:54.445Z,100866.69
2022-09-11T05:57:22.985Z,100863.50
2022-09-11T05:59:52.643Z,100850.28
2022-09-11T06:02:21.455Z,100852.41
2022-09-11T06:04:53.945Z,100846.34
2022-09-11T06:07:24.923Z,100843.97
2022-09-11T06:10:00.993Z,100849.78
2022-09-11T06:12:32.783Z,100848.63
2022-09-11T06:15:01.410Z,100844.53
2022-09-11T06:17:29.917Z,100853.47
2022-09-11T06:19:58.523Z,100852.38
2022-09-11T06:22:29.966Z,100857.31
2022-09-11T06:25:01.445Z,100864.13
2022-09-11T06:27:31.321Z,100855.84
2022-09-11T06:30:07.009Z,100853.28
2022-09-11T06:32:38.380Z,100855.72
2022-09-11T06:35:08.185Z,100847.34
2022-09-11T06:37:37.161Z,100848.63
2022-09-11T06:40:08.893Z,100848.94
2022-09-11T06:42:37.923Z,100848.19
2022-09-11T06:45:08.607Z,100849.22
2022-09-11T06:47:37.542Z,100844.22
2022-09-11T06:50:06.946Z,100842.81
2022-09-11T06:52:45.264Z,100833.75
2022-09-11T06:55:27.905Z,100845.75
2022-09-11T06:58:03.727Z,100839.94
2022-09-11T07:00:33.884Z,100837.47
2022-09-11T07:03:03.863Z,100826.38
2022-09-11T07:05:33.867Z,100829.69
2022-09-11T07:08:04.001Z,100822.66
2022-09-11T07:10:36.870Z,100823.44
2022-09-11T07:13:05.478Z,100809.06
2022-09-11T07:15:34.126Z,100809.94
2022-09-11T07:18:04.248Z,100809.38
2022-09-11T07:20:33.009Z,100807.72
2022-09-11T07:23:01.887Z,100804.63
2022-09-11T07:25:33.381Z,100795.41
2022-09-11T07:28:03.887Z,100791.59
2022-09-11T07:30:33.884Z,100793.66
2022-09-11T07:33:02.758Z,100790.75
2022-09-11T07:35:31.810Z,100778.81
2022-09-11T07:38:00.508Z,100787.53
2022-09-11T07:40:29.848Z,100790.88
2022-09-11T07:43:02.885Z,100785.09
2022-09-11T07:45:32.575Z,100779.31
2022-09-11T07:48:02.519Z,100778.69
2022-09-11T07:50:32.419Z,100774.31
2022-09-11T07:53:01.914Z,100778.13
2022-09-11T07:55:31.167Z,100775.19
2022-09-11T07:57:59.871Z,100773.81
2022-09-11T08:00:35.243Z,100778.81
2022-09-11T08:03:15.162Z,100767.53
2022-09-11T08:05:43.901Z,100755.59
2022-09-11T08:08:14.046Z,100761.56
2022-09-11T08:10:43.259Z,100759.44
2022-09-11T08:13:12.742Z,100757.59
2022-09-11T08:15:49.715Z,100745.56
2022-09-11T08:18:20.384Z,100755.22
2022-09-11T08:20:49.291Z,100743.78
2022-09-11T08:23:18.041Z,100740.94
2022-09-11T08:25:46.719Z,100736.28
2022-09-11T08:28:16.580Z,100740.31
2022-09-11T08:30:45.228Z,100740.00
2022-09-11T08:33:15.563Z,100732.91
2022-09-11T08:35:47.063Z,100737.38
2022-09-11T08:38:15.822Z,100738.91
2022-09-11T08:40:45.302Z,100727.34
2022-09-11T08:43:21.650Z,100728.38
2022-09-11T08:45:56.025Z,100722.53
2022-09-11T08:48:33.578Z,100723.88
2022-09-11T08:51:02.477Z,100716.75
2022-09-11T08:53:35.640Z,100720.03
2022-09-11T08:56:11.602Z,100719.50
2022-09-11T08:58:58.042Z,100716.56
2022-09-11T09:01:37.469Z,100712.28
2022-09-11T09:04:23.847Z,100702.88
2022-09-11T09:07:04.641Z,100709.31
2022-09-11T09:09:47.998Z,100706.41
2022-09-11T09:12:22.084Z,100704.25
2022-09-11T09:15:14.059Z,100705.16
2022-09-11T09:17:49.579Z,100693.78
2022-09-11T09:20:22.821Z,100698.84
2022-09-11T09:22:56.240Z,100701.44
2022-09-11T09:25:28.359Z,100690.34
2022-09-11T09:28:03.959Z,100685.28
2022-09-11T09:30:41.919Z,100681.38
2022-09-11T09:33:27.721Z,100687.31
2022-09-11T09:35:59.182Z,100677.13
2022-09-11T09:38:31.578Z,100674.63
2022-09-11T09:41:17.859Z,100681.72
2022-09-11T09:43:54.960Z,100670.22
2022-09-11T09:46:33.346Z,100672.59
2022-09-11T09:49:02.072Z,100674.56
2022-09-11T09:51:32.079Z,100664.00
2022-09-11T09:54:03.164Z,100673.34
2022-09-11T09:56:37.860Z,100673.19
2022-09-11T09:59:24.018Z,100666.72
2022-09-11T10:01:55.378Z,100647.22
2022-09-11T10:04:27.221Z,100651.56
2022-09-11T10:07:10.907Z,100642.97
2022-09-11T10:09:48.738Z,100647.72
2022-09-11T10:12:22.103Z,100647.22
2022-09-11T10:14:54.542Z,100643.94
2022-09-11T10:17:25.285Z,100640.38
2022-09-11T10:19:57.264Z,100635.59
2022-09-11T10:22:30.598Z,100640.38
2022-09-11T10:25:04.225Z,100635.56
2022-09-11T10:27:36.816Z,100630.50
2022-09-11T10:30:06.689Z,100634.84
2022-09-11T10:32:40.687Z,100632.91
2022-09-11T10:35:11.587Z,100632.03
2022-09-11T10:37:42.106Z,100627.75
2022-09-11T10:40:22.329Z,100623.50
2022-09-11T10:42:52.855Z,100622.84
2022-09-11T10:45:24.895Z,100619.59
2022-09-11T10:47:53.894Z,100624.09
2022-09-11T10:50:26.287Z,100616.84
2022-09-11T10:53:14.096Z,100619.75
2022-09-11T10:55:49.984Z,100627.44
2022-09-11T10:58:23.723Z,100624.59
2022-09-11T11:00:55.505Z,100626.56
2022-09-11T11:03:27.845Z,100625.81
2022-09-11T11:06:11.344Z,100627.16
2022-09-11T11:09:18.697Z,100606.88
2022-09-11T11:12:03.482Z,100611.50
2022-09-11T11:14:51.543Z,100609.34
2022-09-11T11:17:29.901Z,100611.56
2022-09-11T11:20:11.655Z,100605.41
2022-09-11T11:23:01.205Z,100602.72
2022-09-11T11:25:42.497Z,100609.47
2022-09-11T11:28:26.477Z,100592.78
2022-09-11T11:31:07.657Z,100591.72
2022-09-11T11:34:03.380Z,100601.53
2022-09-11T11:36:39.612Z,100598.13
2022-09-11T11:39:18.820Z,100608.00
2022-09-11T11:42:00.221Z,100606.63
2022-09-11T11:44:35.337Z,100607.75
2022-09-11T11:47:08.639Z,100611.56
2022-09-11T11:49:50.697Z,100611.41
2022-09-11T11:52:31.619Z,100600.22
2022-09-11T11:55:08.820Z,100609.38
2022-09-11T11:57:43.081Z,100606.97
2022-09-11T12:00:14.704Z,100602.75
2022-09-11T12:02:49.699Z,100604.75
2022-09-11T12:05:24.263Z,100602.97
2022-09-11T12:07:53.583Z,100608.91
2022-09-11T12:10:28.760Z,100603.94
2022-09-11T12:13:02.116Z,100606.47
2022-09-11T12:15:34.564Z,100604.38
2022-09-11T12:18:05.303Z,100599.16
2022-09-11T12:20:39.370Z,100602.03
2022-09-11T12:23:30.410Z,100600.88
2022-09-11T12:26:06.625Z,100596.03
2022-09-11T12:28:38.145Z,100608.06
2022-09-11T12:31:08.715Z,100602.34
2022-09-11T12:33:54.785Z,100601.88
2022-09-11T12:36:34.269Z,100604.34
2022-09-11T12:39:07.858Z,100602.53
2022-09-11T12:41:38.039Z,100612.03
2022-09-11T12:44:30.940Z,100604.94
2022-09-11T12:47:14.961Z,100603.94
2022-09-11T12:49:52.336Z,100612.88
2022-09-11T12:52:36.022Z,100616.31
2022-09-11T12:55:29.564Z,100608.00
2022-09-11T12:58:02.781Z,100620.28
2022-09-11T13:00:41.142Z,100619.28
2022-09-11T13:03:19.590Z,100620.00
2022-09-11T13:05:56.021Z,100622.72
2022-09-11T13:08:28.252Z,100621.22
2022-09-11T13:11:39.131Z,100623.47
2022-09-11T13:14:47.464Z,100619.53
2022-09-11T13:17:30.701Z,100626.81
2022-09-11T13:20:22.503Z,100627.00
2022-09-11T13:22:56.109Z,100627.84
2022-09-11T13:25:28.230Z,100641.06
2022-09-11T13:28:01.345Z,100634.09
2022-09-11T13:30:30.231Z,100643.88
2022-09-11T13:33:07.844Z,100645.72
2022-09-11T13:35:40.367Z,100662.63
2022-09-11T13:38:12.586Z,100665.63
2022-09-11T13:40:47.845Z,100664.41
2022-09-11T13:43:21.839Z,100675.78
2022-09-11T13:45:51.008Z,100670.06
2022-09-11T13:48:24.203Z,100671.03
2022-09-11T13:50:54.224Z,100662.91
2022-09-11T13:53:24.262Z,100666.09
2022-09-11T13:55:53.145Z,100664.13
2022-09-11T13:58:25.167Z,100661.56
2022-09-11T14:00:55.779Z,100659.16
2022-09-11T14:03:29.958Z,100650.91
2022-09-11T14:06:00.849Z,100652.31
2022-09-11T14:08:35.079Z,100653.59
2022-09-11T14:11:11.238Z,100656.94
2022-09-11T14:13:46.166Z,100650.56
2022-09-11T14:16:25.516Z,100655.44
2022-09-11T14:19:00.443Z,100654.13
2022-09-11T14:21:34.218Z,100652.81
2022-09-11T14:24:07.438Z,100656.75
2022-09-11T14:26:43.380Z,100645.56
2022-09-11T14:29:28.347Z,100648.44
2022-09-11T14:32:32.001Z,100650.13
2022-09-11T14:35:02.662Z,100651.94
2022-09-11T14:37:36.845Z,100650.13
2022-09-11T14:40:09.111Z,100654.44
2022-09-11T14:42:38.400Z,100656.41
2022-09-11T14:45:09.897Z,100653.25
2022-09-11T14:47:39.266Z,100657.41
2022-09-11T14:50:14.157Z,100653.78
2022-09-11T14:52:43.806Z,100661.56
2022-09-11T14:55:16.206Z,100654.50
2022-09-11T14:57:46.812Z,100652.00
2022-09-11T15:00:17.339Z,100657.00
2022-09-11T15:02:48.026Z,100660.94
2022-09-11T15:05:21.944Z,100671.91
2022-09-11T15:07:50.966Z,100665.44
2022-09-11T15:10:20.823Z,100666.66
2022-09-11T15:12:50.536Z,100658.94
2022-09-11T15:15:22.916Z,100654.38
2022-09-11T15:17:51.908Z,100658.16
2022-09-11T15:20:22.424Z,100663.47
2022-09-11T15:22:51.440Z,100664.59
2022-09-11T15:25:20.241Z,100656.22
2022-09-11T15:27:51.980Z,100657.91
2022-09-11T15:30:21.517Z,100660.16
2022-09-11T15:32:50.514Z,100657.91
2022-09-11T15:35:19.548Z,100664.09
2022-09-11T15:37:49.763Z,100654.25
2022-09-11T15:40:19.019Z,100649.03
2022-09-11T15:42:50.070Z,100660.78
2022-09-11T15:45:18.696Z,100659.91
2022-09-11T15:47:47.501Z,100662.19
2022-09-11T15:50:20.265Z,100661.44
2022-09-11T15:52:50.496Z,100649.66
2022-09-11T15:55:19.397Z,100655.06
2022-09-11T15:57:48.383Z,100652.22
2022-09-11T16:00:17.342Z,100662.53
2022-09-11T16:02:46.201Z,100646.34
2022-09-11T16:05:15.599Z,100658.81
2022-09-11T16:07:44.322Z,100661.38
2022-09-11T16:10:14.560Z,100661.53
2022-09-11T16:12:43.246Z,100651.75
2022-09-11T16:15:13.258Z,100659.03
2022-09-11T16:17:42.039Z,100654.09
2022-09-11T16:20:11.658Z,100651.13
2022-09-11T16:22:40.340Z,100658.81
2022-09-11T16:25:09.479Z,100663.81
2022-09-11T16:27:39.880Z,100653.59
2022-09-11T16:30:32.592Z,100664.34
2022-09-11T16:33:01.645Z,100655.22
2022-09-11T16:35:32.291Z,100661.16
2022-09-11T16:38:01.360Z,100657.66
2022-09-11T16:40:30.382Z,100651.38
2022-09-11T16:43:00.722Z,100658.91
2022-09-11T16:45:29.456Z,100649.66
2022-09-11T16:48:00.259Z,100659.28
2022-09-11T16:50:29.540Z,100655.44
2022-09-11T16:52:59.476Z,100659.44
2022-09-11T16:55:28.823Z,100653.16
2022-09-11T16:57:59.142Z,100656.69
2022-09-11T17:00:29.337Z,100662.31
2022-09-11T17:02:58.752Z,100662.56
2022-09-11T17:05:28.091Z,100664.44
2022-09-11T17:07:56.714Z,100659.22
2022-09-11T17:10:25.623Z,100661.50
2022-09-11T17:12:55.692Z,100656.69
2022-09-11T17:15:25.553Z,100655.84
2022-09-11T17:17:56.093Z,100653.94
2022-09-11T17:20:24.796Z,100658.69
2022-09-11T17:22:58.231Z,100655.13
2022-09-11T17:25:27.053Z,100661.81
2022-09-11T17:27:55.783Z,100659.75
2022-09-11T17:30:24.370Z,100660.31
2022-09-11T17:32:53.034Z,100665.13
2022-09-11T17:35:23.153Z,100661.81
2022-09-11T17:37:52.266Z,100668.13
2022-09-11T17:40:21.028Z,100665.72
2022-09-11T17:42:49.665Z,100664.91
2022-09-11T17:45:20.174Z,100655.16
2022-09-11T17:47:48.946Z,100659.13
2022-09-11T17:50:17.890Z,100659.56
2022-09-11T17:52:48.100Z,100653.50
2022-09-11T17:55:17.320Z,100657.72
2022-09-11T17:57:46.501Z,100666.56
2022-09-11T18:00:15.840Z,100664.13
2022-09-11T18:02:46.843Z,100664.75
2022-09-11T18:05:15.373Z,100660.53
2022-09-11T18:07:44.033Z,100664.19
2022-09-11T18:10:14.474Z,100663.34
2022-09-11T18:12:44.251Z,100668.13
2022-09-11T18:15:13.092Z,100663.63
2022-09-11T18:17:41.934Z,100670.31
2022-09-11T18:20:11.052Z,100655.72
2022-09-11T18:22:40.002Z,100659.97
2022-09-11T18:25:09.896Z,100665.63
2022-09-11T18:27:41.319Z,100667.72
2022-09-11T18:30:11.003Z,100675.41
2022-09-11T18:32:41.260Z,100671.59
2022-09-11T18:35:10.644Z,100667.06
2022-09-11T18:37:39.324Z,100673.19
2022-09-11T18:40:09.214Z,100670.50
2022-09-11T18:42:37.933Z,100666.66
2022-09-11T18:45:09.720Z,100671.03
2022-09-11T18:47:38.341Z,100673.03
2022-09-11T18:50:08.542Z,100673.19
2022-09-11T18:52:37.375Z,100674.16
2022-09-11T18:55:06.583Z,100678.41
2022-09-11T18:57:40.101Z,100673.63
2022-09-11T19:00:15.963Z,100664.94
2022-09-11T19:02:45.860Z,100662.56
2022-09-11T19:05:15.781Z,100670.91
2022-09-11T19:07:45.383Z,100664.81
2022-09-11T19:10:14.241Z,100672.88
2022-09-11T19:12:43.142Z,100663.28
2022-09-11T19:15:13.321Z,100665.97
2022-09-11T19:17:42.202Z,100664.81
2022-09-11T19:20:12.885Z,100660.56
2022-09-11T19:22:41.606Z,100659.31
2022-09-11T19:25:11.088Z,100659.44
2022-09-11T19:27:39.705Z,100657.59
2022-09-11T19:30:09.005Z,100653.94
2022-09-11T19:32:39.126Z,100658.31
2022-09-11T19:35:08.627Z,100657.16
2022-09-11T19:37:37.568Z,100660.88
2022-09-11T19:40:07.332Z,100653.47
2022-09-11T19:42:38.966Z,100660.28
2022-09-11T19:45:08.857Z,100654.03
2022-09-11T19:47:39.478Z,100655.31
2022-09-11T19:50:09.527Z,100659.97
2022-09-11T19:52:38.205Z,100652.59
2022-09-11T19:55:07.611Z,100649.09
2022-09-11T19:57:36.330Z,100648.09
2022-09-11T20:00:05.930Z,100651.06
2022-09-11T20:02:35.786Z,100649.22
2022-09-11T20:05:06.353Z,100651.91
2022-09-11T20:07:35.139Z,100659.00
2022-09-11T20:10:03.855Z,100658.00
2022-09-11T20:12:37.632Z,100661.28
2022-09-11T20:15:07.473Z,100653.50
2022-09-11T20:17:36.070Z,100653.50
2022-09-11T20:20:07.230Z,100654.91
2022-09-11T20:22:36.012Z,100654.78
2022-09-11T20:25:05.170Z,100656.63
2022-09-11T20:27:34.770Z,100657.03
2022-09-11T20:30:03.410Z,100661.72
2022-09-11T20:32:32.423Z,100661.00
2022-09-11T20:35:01.144Z,100662.25
2022-09-11T20:37:31.643Z,100663.41
2022-09-11T20:40:00.678Z,100651.66
2022-09-11T20:42:29.820Z,100657.16
2022-09-11T20:45:00.588Z,100653.47
2022-09-11T20:47:29.246Z,100654.16
2022-09-11T20:49:58.180Z,100646.69
2022-09-11T20:52:26.921Z,100645.56
2022-09-11T20:54:57.126Z,100656.03
2022-09-11T20:57:25.960Z,100645.84
2022-09-11T20:59:55.023Z,100653.63
2022-09-11T21:02:24.982Z,100659.44
2022-09-11T21:04:53.764Z,100655.06
2022-09-11T21:07:22.362Z,100648.38
2022-09-11T21:09:51.166Z,100655.63
2022-09-11T21:12:21.288Z,100660.88
2022-09-11T21:14:50.203Z,100664.84
2022-09-11T21:17:18.879Z,100650.25
2022-09-11T21:19:47.625Z,100654.34
2022-09-11T21:22:16.324Z,100649.09
2022-09-11T21:24:45.023Z,100644.13
2022-09-11T21:27:13.621Z,100648.81
2022-09-11T21:29:44.181Z,100644.84
2022-09-11T21:32:12.864Z,100646.81
2022-09-11T21:34:41.544Z,100648.09
2022-09-11T21:37:10.383Z,100650.09
2022-09-11T21:39:39.188Z,100648.09
2022-09-11T21:42:11.783Z,100650.09
2022-09-11T21:44:40.938Z,100653.47
2022-09-11T21:47:11.178Z,100652.78
2022-09-11T21:49:39.862Z,100644.13
2022-09-11T21:52:09.124Z,100653.03
2022-09-11T21:54:38.305Z,100648.38
2022-09-11T21:57:07.102Z,100646.56
2022-09-11T21:59:35.746Z,100656.63
2022-09-11T22:02:04.662Z,100642.44
2022-09-11T22:04:35.529Z,100642.44
2022-09-11T22:07:05.082Z,100637.63
2022-09-11T22:09:33.941Z,100634.09
2022-09-11T22:12:03.717Z,100640.31
2022-09-11T22:14:32.506Z,100632.09
2022-09-11T22:17:01.111Z,100637.78
2022-09-11T22:19:29.827Z,100640.75
2022-09-11T22:21:59.867Z,100635.63
2022-09-11T22:24:28.548Z,100638.91
2022-09-11T22:26:57.087Z,100635.38
2022-09-11T22:29:25.872Z,100633.94
2022-09-11T22:31:54.667Z,100640.75
2022-09-11T22:34:23.609Z,100633.38
2022-09-11T22:36:52.298Z,100636.22
2022-09-11T22:39:22.726Z,100633.38
2022-09-11T22:41:51.384Z,100643.47
2022-09-11T22:44:20.587Z,100640.47
2022-09-11T22:46:49.232Z,100639.75
2022-09-11T22:49:17.927Z,100641.03
2022-09-11T22:51:46.568Z,100644.56
2022-09-11T22:54:15.483Z,100641.03
2022-09-11T22:56:45.802Z,100644.31
2022-09-11T22:59:14.397Z,100637.06
2022-09-11T23:01:43.042Z,100639.88
2022-09-11T23:04:11.648Z,100647.13
2022-09-11T23:06:57.348Z,100642.59
2022-09-11T23:09:25.943Z,100647.25
2022-09-11T23:11:56.468Z,100647.72
2022-09-11T23:14:24.998Z,100648.69
2022-09-11T23:16:53.632Z,100646.28
2022-09-11T23:19:22.584Z,100653.22
2022-09-11T23:21:52.761Z,100649.97
2022-09-11T23:24:21.941Z,100644.31
2022-09-11T23:26:50.561Z,100644.72
2022-09-11T23:29:20.706Z,100642.88
2022-09-11T23:31:49.372Z,100643.28
2022-09-11T23:34:18.832Z,100638.19
2022-09-11T23:36:47.485Z,100639.75
2022-09-11T23:39:16.277Z,100639.03
2022-09-11T23:41:44.878Z,100641.59
2022-09-11T23:44:13.646Z,100646.41
2022-09-11T23:46:43.872Z,100642.28
2022-09-11T23:49:12.950Z,100633.66
2022-09-11T23:51:41.856Z,100635.50
2022-09-11T23:54:10.413Z,100635.50
2022-09-11T23:56:39.133Z,100632.81
2022-09-11T23:59:07.772Z,100637.78
